sensor_id;sensor_type;location;lat;lon;timestamp;pressure;altitude;pressure_sealevel;temperature;humidity
61345;BME280;47216;42.656;23.232;2023-05-19T00:01:38;94119.91;;;11.82;81.20
61345;BME280;47216;42.656;23.232;2023-05-19T00:04:09;94126.78;;;11.88;81.33
61345;BME280;47216;42.656;23.232;2023-05-19T00:06:37;94124.22;;;11.93;81.29
61345;BME280;47216;42.656;23.232;2023-05-19T00:09:06;94125.78;;;11.94;80.85
61345;BME280;47216;42.656;23.232;2023-05-19T00:11:35;94119.47;;;11.90;80.89
61345;BME280;47216;42.656;23.232;2023-05-19T00:14:04;94120.06;;;11.97;81.22
61345;BME280;47216;42.656;23.232;2023-05-19T00:16:32;94123.69;;;11.96;81.34
61345;BME280;47216;42.656;23.232;2023-05-19T00:19:01;94119.00;;;11.98;81.36
61345;BME280;47216;42.656;23.232;2023-05-19T00:21:28;94116.09;;;11.94;81.01
61345;BME280;47216;42.656;23.232;2023-05-19T00:23:55;94105.31;;;11.86;81.50
61345;BME280;47216;42.656;23.232;2023-05-19T00:26:22;94113.16;;;11.86;81.66
61345;BME280;47216;42.656;23.232;2023-05-19T00:28:51;94107.91;;;11.86;81.32
61345;BME280;47216;42.656;23.232;2023-05-19T00:31:18;94107.28;;;12.01;80.61
61345;BME280;47216;42.656;23.232;2023-05-19T00:33:45;94106.81;;;12.09;79.94
61345;BME280;47216;42.656;23.232;2023-05-19T00:36:13;94094.00;;;12.07;79.45
61345;BME280;47216;42.656;23.232;2023-05-19T00:38:40;94097.31;;;11.97;79.71
61345;BME280;47216;42.656;23.232;2023-05-19T00:41:07;94109.38;;;12.04;80.07
61345;BME280;47216;42.656;23.232;2023-05-19T00:43:34;94107.81;;;12.03;80.10
61345;BME280;47216;42.656;23.232;2023-05-19T00:46:01;94100.22;;;12.01;79.89
61345;BME280;47216;42.656;23.232;2023-05-19T00:48:28;94102.78;;;11.96;80.48
61345;BME280;47216;42.656;23.232;2023-05-19T00:50:56;94100.66;;;11.88;80.36
61345;BME280;47216;42.656;23.232;2023-05-19T00:53:30;94094.84;;;11.86;80.21
61345;BME280;47216;42.656;23.232;2023-05-19T00:55:59;94095.88;;;11.85;80.94
61345;BME280;47216;42.656;23.232;2023-05-19T00:58:27;94091.16;;;11.82;80.73
61345;BME280;47216;42.656;23.232;2023-05-19T01:00:55;94093.03;;;11.86;80.64
61345;BME280;47216;42.656;23.232;2023-05-19T01:03:28;94089.63;;;11.86;80.13
61345;BME280;47216;42.656;23.232;2023-05-19T01:05:55;94094.31;;;11.84;80.31
61345;BME280;47216;42.656;23.232;2023-05-19T01:08:22;94094.78;;;11.81;80.57
61345;BME280;47216;42.656;23.232;2023-05-19T01:10:50;94104.47;;;11.80;80.26
61345;BME280;47216;42.656;23.232;2023-05-19T01:13:17;94094.75;;;11.75;79.94
61345;BME280;47216;42.656;23.232;2023-05-19T01:16:04;94104.19;;;11.76;80.34
61345;BME280;47216;42.656;23.232;2023-05-19T01:18:40;94102.97;;;11.62;80.00
61345;BME280;47216;42.656;23.232;2023-05-19T01:21:25;94097.66;;;11.52;79.76
61345;BME280;47216;42.656;23.232;2023-05-19T01:24:10;94106.59;;;11.56;79.84
61345;BME280;47216;42.656;23.232;2023-05-19T01:27:00;94107.09;;;11.53;79.91
61345;BME280;47216;42.656;23.232;2023-05-19T01:29:41;94104.13;;;11.44;79.39
61345;BME280;47216;42.656;23.232;2023-05-19T01:32:10;94105.56;;;11.30;79.66
61345;BME280;47216;42.656;23.232;2023-05-19T01:34:43;94106.34;;;11.30;79.69
61345;BME280;47216;42.656;23.232;2023-05-19T01:37:12;94104.69;;;11.24;79.37
61345;BME280;47216;42.656;23.232;2023-05-19T01:39:41;94105.63;;;11.13;80.02
61345;BME280;47216;42.656;23.232;2023-05-19T01:42:10;94099.97;;;10.99;80.24
61345;BME280;47216;42.656;23.232;2023-05-19T01:44:38;94102.53;;;10.94;80.30
61345;BME280;47216;42.656;23.232;2023-05-19T01:47:05;94093.88;;;10.88;80.06
61345;BME280;47216;42.656;23.232;2023-05-19T01:49:34;94099.56;;;10.85;79.93
61345;BME280;47216;42.656;23.232;2023-05-19T01:52:01;94107.81;;;10.77;80.50
61345;BME280;47216;42.656;23.232;2023-05-19T01:54:28;94102.88;;;10.81;80.30
61345;BME280;47216;42.656;23.232;2023-05-19T01:57:09;94105.13;;;10.72;80.60
61345;BME280;47216;42.656;23.232;2023-05-19T01:59:51;94103.16;;;10.79;80.56
61345;BME280;47216;42.656;23.232;2023-05-19T02:02:25;94108.59;;;10.78;80.37
61345;BME280;47216;42.656;23.232;2023-05-19T02:04:58;94108.81;;;10.76;80.22
61345;BME280;47216;42.656;23.232;2023-05-19T02:07:32;94113.81;;;10.78;79.78
61345;BME280;47216;42.656;23.232;2023-05-19T02:10:05;94112.72;;;10.73;80.14
61345;BME280;47216;42.656;23.232;2023-05-19T02:12:34;94108.44;;;10.67;79.94
61345;BME280;47216;42.656;23.232;2023-05-19T02:15:04;94112.31;;;10.65;80.00
61345;BME280;47216;42.656;23.232;2023-05-19T02:17:35;94109.72;;;10.65;80.12
61345;BME280;47216;42.656;23.232;2023-05-19T02:20:05;94114.16;;;10.64;80.45
61345;BME280;47216;42.656;23.232;2023-05-19T02:22:33;94120.31;;;10.58;80.65
61345;BME280;47216;42.656;23.232;2023-05-19T02:25:00;94114.81;;;10.55;80.81
61345;BME280;47216;42.656;23.232;2023-05-19T02:27:27;94119.25;;;10.54;80.94
61345;BME280;47216;42.656;23.232;2023-05-19T02:29:54;94120.31;;;10.58;81.05
61345;BME280;47216;42.656;23.232;2023-05-19T02:32:21;94124.69;;;10.52;81.05
61345;BME280;47216;42.656;23.232;2023-05-19T02:34:48;94126.25;;;10.54;81.28
61345;BME280;47216;42.656;23.232;2023-05-19T02:37:16;94121.28;;;10.52;81.57
61345;BME280;47216;42.656;23.232;2023-05-19T02:39:43;94119.47;;;10.52;81.31
61345;BME280;47216;42.656;23.232;2023-05-19T02:42:10;94125.47;;;10.53;81.57
61345;BME280;47216;42.656;23.232;2023-05-19T02:44:39;94116.25;;;10.45;81.77
61345;BME280;47216;42.656;23.232;2023-05-19T02:47:07;94120.41;;;10.46;81.94
61345;BME280;47216;42.656;23.232;2023-05-19T02:49:33;94120.97;;;10.48;82.04
61345;BME280;47216;42.656;23.232;2023-05-19T02:52:01;94126.03;;;10.55;81.68
61345;BME280;47216;42.656;23.232;2023-05-19T02:54:30;94124.75;;;10.58;81.68
61345;BME280;47216;42.656;23.232;2023-05-19T02:56:57;94128.69;;;10.60;81.10
61345;BME280;47216;42.656;23.232;2023-05-19T02:59:24;94114.81;;;10.55;81.75
61345;BME280;47216;42.656;23.232;2023-05-19T03:01:54;94120.50;;;10.51;81.50
61345;BME280;47216;42.656;23.232;2023-05-19T03:04:21;94122.69;;;10.60;81.16
61345;BME280;47216;42.656;23.232;2023-05-19T03:06:48;94128.41;;;10.57;80.87
61345;BME280;47216;42.656;23.232;2023-05-19T03:09:15;94135.50;;;10.61;80.57
61345;BME280;47216;42.656;23.232;2023-05-19T03:11:43;94135.44;;;10.56;80.44
61345;BME280;47216;42.656;23.232;2023-05-19T03:14:10;94120.31;;;10.58;80.14
61345;BME280;47216;42.656;23.232;2023-05-19T03:16:37;94131.25;;;10.55;80.21
61345;BME280;47216;42.656;23.232;2023-05-19T03:19:06;94135.19;;;10.58;80.38
61345;BME280;47216;42.656;23.232;2023-05-19T03:21:33;94136.69;;;10.54;80.74
61345;BME280;47216;42.656;23.232;2023-05-19T03:24:00;94139.28;;;10.54;80.77
61345;BME280;47216;42.656;23.232;2023-05-19T03:26:27;94126.25;;;10.54;80.56
61345;BME280;47216;42.656;23.232;2023-05-19T03:28:55;94137.34;;;10.61;80.52
61345;BME280;47216;42.656;23.232;2023-05-19T03:31:22;94136.38;;;10.50;81.19
61345;BME280;47216;42.656;23.232;2023-05-19T03:33:49;94132.03;;;10.56;80.96
61345;BME280;47216;42.656;23.232;2023-05-19T03:36:15;94139.84;;;10.56;81.38
61345;BME280;47216;42.656;23.232;2023-05-19T03:38:42;94137.84;;;10.63;81.38
61345;BME280;47216;42.656;23.232;2023-05-19T03:41:09;94126.69;;;10.45;81.27
61345;BME280;47216;42.656;23.232;2023-05-19T03:43:36;94134.06;;;10.54;81.21
61345;BME280;47216;42.656;23.232;2023-05-19T03:46:04;94133.13;;;10.60;81.10
61345;BME280;47216;42.656;23.232;2023-05-19T03:48:31;94122.25;;;10.46;82.21
61345;BME280;47216;42.656;23.232;2023-05-19T03:50:58;94129.84;;;10.47;81.75
61345;BME280;47216;42.656;23.232;2023-05-19T03:53:25;94140.09;;;10.37;82.42
61345;BME280;47216;42.656;23.232;2023-05-19T03:55:54;94141.22;;;10.41;82.71
61345;BME280;47216;42.656;23.232;2023-05-19T03:58:21;94140.75;;;10.44;82.83
61345;BME280;47216;42.656;23.232;2023-05-19T04:00:48;94137.16;;;10.50;83.07
61345;BME280;47216;42.656;23.232;2023-05-19T04:03:16;94132.56;;;10.58;82.94
61345;BME280;47216;42.656;23.232;2023-05-19T04:05:43;94135.97;;;10.58;83.17
61345;BME280;47216;42.656;23.232;2023-05-19T04:08:10;94133.75;;;10.67;83.05
61345;BME280;47216;42.656;23.232;2023-05-19T04:10:37;94142.91;;;10.69;83.27
61345;BME280;47216;42.656;23.232;2023-05-19T04:13:03;94137.47;;;10.71;83.07
61345;BME280;47216;42.656;23.232;2023-05-19T04:15:30;94145.16;;;10.83;82.95
61345;BME280;47216;42.656;23.232;2023-05-19T04:17:57;94144.50;;;10.92;82.81
61345;BME280;47216;42.656;23.232;2023-05-19T04:20:25;94148.28;;;11.02;82.80
61345;BME280;47216;42.656;23.232;2023-05-19T04:22:52;94148.81;;;11.04;82.42
61345;BME280;47216;42.656;23.232;2023-05-19T04:25:19;94143.06;;;11.02;82.62
61345;BME280;47216;42.656;23.232;2023-05-19T04:27:46;94145.81;;;11.12;82.58
61345;BME280;47216;42.656;23.232;2023-05-19T04:30:13;94149.81;;;11.20;82.53
61345;BME280;47216;42.656;23.232;2023-05-19T04:32:46;94157.81;;;11.13;82.57
61345;BME280;47216;42.656;23.232;2023-05-19T04:35:13;94152.19;;;11.21;83.19
61345;BME280;47216;42.656;23.232;2023-05-19T04:37:43;94152.84;;;11.33;83.21
61345;BME280;47216;42.656;23.232;2023-05-19T04:40:11;94153.78;;;11.49;83.26
61345;BME280;47216;42.656;23.232;2023-05-19T04:42:38;94154.38;;;11.56;83.76
61345;BME280;47216;42.656;23.232;2023-05-19T04:45:08;94155.94;;;11.80;83.34
61345;BME280;47216;42.656;23.232;2023-05-19T04:47:36;94161.56;;;11.93;83.67
61345;BME280;47216;42.656;23.232;2023-05-19T04:50:04;94162.47;;;12.04;83.40
61345;BME280;47216;42.656;23.232;2023-05-19T04:52:31;94155.81;;;12.24;83.13
61345;BME280;47216;42.656;23.232;2023-05-19T04:55:00;94161.38;;;12.32;83.11
61345;BME280;47216;42.656;23.232;2023-05-19T04:57:27;94160.69;;;12.47;82.01
61345;BME280;47216;42.656;23.232;2023-05-19T04:59:53;94161.81;;;12.56;81.92
61345;BME280;47216;42.656;23.232;2023-05-19T05:02:24;94163.75;;;12.71;80.00
61345;BME280;47216;42.656;23.232;2023-05-19T05:04:51;94154.88;;;12.77;79.58
61345;BME280;47216;42.656;23.232;2023-05-19T05:07:19;94153.31;;;12.81;78.60
61345;BME280;47216;42.656;23.232;2023-05-19T05:09:45;94148.38;;;12.85;78.57
61345;BME280;47216;42.656;23.232;2023-05-19T05:12:15;94164.66;;;12.97;77.26
61345;BME280;47216;42.656;23.232;2023-05-19T05:14:43;94156.63;;;13.09;76.94
61345;BME280;47216;42.656;23.232;2023-05-19T05:17:11;94163.47;;;13.15;76.65
61345;BME280;47216;42.656;23.232;2023-05-19T05:19:38;94157.16;;;13.16;76.28
61345;BME280;47216;42.656;23.232;2023-05-19T05:22:06;94159.03;;;13.21;76.15
61345;BME280;47216;42.656;23.232;2023-05-19T05:24:35;94160.88;;;13.25;75.63
61345;BME280;47216;42.656;23.232;2023-05-19T05:27:02;94165.66;;;13.29;74.52
61345;BME280;47216;42.656;23.232;2023-05-19T05:29:31;94156.72;;;13.30;74.67
61345;BME280;47216;42.656;23.232;2023-05-19T05:31:58;94152.34;;;13.40;74.80
61345;BME280;47216;42.656;23.232;2023-05-19T05:34:25;94155.47;;;13.42;75.85
61345;BME280;47216;42.656;23.232;2023-05-19T05:36:52;94153.38;;;13.44;74.94
61345;BME280;47216;42.656;23.232;2023-05-19T05:39:19;94157.56;;;13.45;75.23
61345;BME280;47216;42.656;23.232;2023-05-19T05:41:46;94165.44;;;13.51;74.62
61345;BME280;47216;42.656;23.232;2023-05-19T05:44:12;94159.69;;;13.49;74.87
61345;BME280;47216;42.656;23.232;2023-05-19T05:46:41;94157.63;;;13.61;74.76
61345;BME280;47216;42.656;23.232;2023-05-19T05:49:09;94157.38;;;13.68;74.44
61345;BME280;47216;42.656;23.232;2023-05-19T05:51:37;94159.75;;;13.79;74.69
61345;BME280;47216;42.656;23.232;2023-05-19T05:54:05;94166.56;;;13.80;73.80
61345;BME280;47216;42.656;23.232;2023-05-19T05:56:33;94163.47;;;13.94;74.50
61345;BME280;47216;42.656;23.232;2023-05-19T05:59:01;94167.13;;;13.98;74.37
61345;BME280;47216;42.656;23.232;2023-05-19T06:01:28;94165.59;;;14.12;73.22
61345;BME280;47216;42.656;23.232;2023-05-19T06:03:57;94165.31;;;14.24;74.36
61345;BME280;47216;42.656;23.232;2023-05-19T06:06:24;94177.66;;;14.39;74.87
61345;BME280;47216;42.656;23.232;2023-05-19T06:08:51;94178.16;;;14.46;73.80
61345;BME280;47216;42.656;23.232;2023-05-19T06:11:18;94186.09;;;14.56;73.56
61345;BME280;47216;42.656;23.232;2023-05-19T06:13:45;94173.22;;;14.60;71.76
61345;BME280;47216;42.656;23.232;2023-05-19T06:16:12;94185.03;;;14.67;72.39
61345;BME280;47216;42.656;23.232;2023-05-19T06:18:39;94176.63;;;14.70;70.60
61345;BME280;47216;42.656;23.232;2023-05-19T06:21:07;94175.28;;;14.78;69.79
61345;BME280;47216;42.656;23.232;2023-05-19T06:23:34;94169.75;;;14.85;69.50
61345;BME280;47216;42.656;23.232;2023-05-19T06:26:01;94171.81;;;15.03;70.06
61345;BME280;47216;42.656;23.232;2023-05-19T06:28:28;94173.13;;;15.16;70.38
61345;BME280;47216;42.656;23.232;2023-05-19T06:30:55;94168.06;;;15.25;70.86
61345;BME280;47216;42.656;23.232;2023-05-19T06:33:23;94174.34;;;15.39;71.28
61345;BME280;47216;42.656;23.232;2023-05-19T06:35:50;94176.91;;;15.54;71.14
61345;BME280;47216;42.656;23.232;2023-05-19T06:38:18;94172.13;;;15.62;70.51
61345;BME280;47216;42.656;23.232;2023-05-19T06:40:45;94172.66;;;15.74;69.15
61345;BME280;47216;42.656;23.232;2023-05-19T06:43:11;94172.34;;;15.75;68.36
61345;BME280;47216;42.656;23.232;2023-05-19T06:45:38;94169.47;;;15.77;65.51
61345;BME280;47216;42.656;23.232;2023-05-19T06:48:05;94176.25;;;15.88;66.58
61345;BME280;47216;42.656;23.232;2023-05-19T06:50:32;94178.28;;;15.96;66.28
61345;BME280;47216;42.656;23.232;2023-05-19T06:52:59;94182.50;;;15.98;66.54
61345;BME280;47216;42.656;23.232;2023-05-19T06:55:30;94178.72;;;16.14;66.92
61345;BME280;47216;42.656;23.232;2023-05-19T06:57:57;94179.16;;;16.26;66.32
61345;BME280;47216;42.656;23.232;2023-05-19T07:00:24;94190.38;;;16.37;65.72
61345;BME280;47216;42.656;23.232;2023-05-19T07:02:51;94194.94;;;16.26;66.06
61345;BME280;47216;42.656;23.232;2023-05-19T07:05:18;94196.38;;;16.43;65.20
61345;BME280;47216;42.656;23.232;2023-05-19T07:07:45;94197.38;;;16.52;64.92
61345;BME280;47216;42.656;23.232;2023-05-19T07:10:12;94193.91;;;16.62;65.39
61345;BME280;47216;42.656;23.232;2023-05-19T07:12:41;94194.56;;;16.72;61.87
61345;BME280;47216;42.656;23.232;2023-05-19T07:15:08;94195.53;;;16.87;62.49
61345;BME280;47216;42.656;23.232;2023-05-19T07:17:35;94201.88;;;16.86;63.02
61345;BME280;47216;42.656;23.232;2023-05-19T07:20:03;94199.75;;;16.88;62.72
61345;BME280;47216;42.656;23.232;2023-05-19T07:22:31;94209.13;;;16.99;62.20
61345;BME280;47216;42.656;23.232;2023-05-19T07:24:59;94207.50;;;17.03;62.79
61345;BME280;47216;42.656;23.232;2023-05-19T07:27:26;94210.69;;;17.00;63.80
61345;BME280;47216;42.656;23.232;2023-05-19T07:29:54;94207.69;;;16.83;63.52
61345;BME280;47216;42.656;23.232;2023-05-19T07:32:21;94200.84;;;16.82;62.30
61345;BME280;47216;42.656;23.232;2023-05-19T07:34:48;94215.00;;;16.91;62.73
61345;BME280;47216;42.656;23.232;2023-05-19T07:37:15;94190.31;;;16.82;63.03
61345;BME280;47216;42.656;23.232;2023-05-19T07:39:42;94203.09;;;16.98;61.41
61345;BME280;47216;42.656;23.232;2023-05-19T07:42:09;94211.59;;;17.14;62.81
61345;BME280;47216;42.656;23.232;2023-05-19T07:44:36;94201.75;;;17.01;62.64
61345;BME280;47216;42.656;23.232;2023-05-19T07:47:06;94205.22;;;16.96;63.20
61345;BME280;47216;42.656;23.232;2023-05-19T07:49:33;94208.00;;;17.05;62.49
61345;BME280;47216;42.656;23.232;2023-05-19T07:52:00;94204.75;;;17.13;61.32
61345;BME280;47216;42.656;23.232;2023-05-19T07:54:27;94208.13;;;17.19;62.74
61345;BME280;47216;42.656;23.232;2023-05-19T07:56:54;94197.03;;;17.22;62.96
61345;BME280;47216;42.656;23.232;2023-05-19T07:59:21;94195.25;;;17.17;61.72
61345;BME280;47216;42.656;23.232;2023-05-19T08:01:48;94203.09;;;17.22;61.61
61345;BME280;47216;42.656;23.232;2023-05-19T08:04:16;94204.31;;;17.30;60.86
61345;BME280;47216;42.656;23.232;2023-05-19T08:06:44;94197.59;;;17.19;60.89
61345;BME280;47216;42.656;23.232;2023-05-19T08:09:11;94197.69;;;17.33;61.89
61345;BME280;47216;42.656;23.232;2023-05-19T08:11:38;94201.34;;;17.37;61.56
61345;BME280;47216;42.656;23.232;2023-05-19T08:14:05;94198.03;;;17.50;62.25
61345;BME280;47216;42.656;23.232;2023-05-19T08:16:32;94187.25;;;17.47;61.31
61345;BME280;47216;42.656;23.232;2023-05-19T08:19:00;94194.22;;;17.61;61.43
61345;BME280;47216;42.656;23.232;2023-05-19T08:21:31;94191.94;;;17.74;61.34
61345;BME280;47216;42.656;23.232;2023-05-19T08:23:58;94184.13;;;17.69;60.92
61345;BME280;47216;42.656;23.232;2023-05-19T08:26:25;94190.16;;;17.69;61.01
61345;BME280;47216;42.656;23.232;2023-05-19T08:28:53;94189.97;;;17.66;60.04
61345;BME280;47216;42.656;23.232;2023-05-19T08:31:20;94172.00;;;17.68;60.91
61345;BME280;47216;42.656;23.232;2023-05-19T08:33:47;94177.28;;;17.68;61.02
61345;BME280;47216;42.656;23.232;2023-05-19T08:36:14;94184.88;;;17.93;61.60
61345;BME280;47216;42.656;23.232;2023-05-19T08:38:42;94178.03;;;17.92;61.25
61345;BME280;47216;42.656;23.232;2023-05-19T08:41:09;94179.97;;;18.05;60.83
61345;BME280;47216;42.656;23.232;2023-05-19T08:43:36;94191.03;;;18.08;60.68
61345;BME280;47216;42.656;23.232;2023-05-19T08:46:03;94187.38;;;18.22;59.03
61345;BME280;47216;42.656;23.232;2023-05-19T08:48:34;94188.72;;;18.20;59.67
61345;BME280;47216;42.656;23.232;2023-05-19T08:51:10;94191.50;;;18.29;60.84
61345;BME280;47216;42.656;23.232;2023-05-19T08:53:49;94198.56;;;18.33;60.54
61345;BME280;47216;42.656;23.232;2023-05-19T08:56:20;94189.66;;;18.29;59.84
61345;BME280;47216;42.656;23.232;2023-05-19T08:58:48;94189.50;;;18.39;59.54
61345;BME280;47216;42.656;23.232;2023-05-19T09:01:16;94185.91;;;18.49;60.52
61345;BME280;47216;42.656;23.232;2023-05-19T09:03:44;94179.09;;;18.62;60.99
61345;BME280;47216;42.656;23.232;2023-05-19T09:06:11;94179.38;;;18.79;60.23
61345;BME280;47216;42.656;23.232;2023-05-19T09:08:38;94173.91;;;18.89;58.98
61345;BME280;47216;42.656;23.232;2023-05-19T09:11:08;94177.94;;;19.01;57.85
61345;BME280;47216;42.656;23.232;2023-05-19T09:13:35;94184.00;;;19.01;56.94
61345;BME280;47216;42.656;23.232;2023-05-19T09:16:02;94170.13;;;18.96;55.48
61345;BME280;47216;42.656;23.232;2023-05-19T09:18:29;94177.81;;;18.92;58.16
61345;BME280;47216;42.656;23.232;2023-05-19T09:20:58;94182.09;;;18.74;57.43
61345;BME280;47216;42.656;23.232;2023-05-19T09:23:27;94182.94;;;18.88;56.72
61345;BME280;47216;42.656;23.232;2023-05-19T09:25:55;94176.00;;;18.74;57.48
61345;BME280;47216;42.656;23.232;2023-05-19T09:28:25;94170.22;;;18.91;56.77
61345;BME280;47216;42.656;23.232;2023-05-19T09:30:59;94175.13;;;18.97;56.38
61345;BME280;47216;42.656;23.232;2023-05-19T09:33:26;94165.91;;;19.22;57.00
61345;BME280;47216;42.656;23.232;2023-05-19T09:35:54;94171.41;;;19.40;56.89
61345;BME280;47216;42.656;23.232;2023-05-19T09:38:23;94169.94;;;19.47;55.03
61345;BME280;47216;42.656;23.232;2023-05-19T09:40:51;94168.97;;;19.57;53.80
61345;BME280;47216;42.656;23.232;2023-05-19T09:43:18;94170.63;;;19.53;54.13
61345;BME280;47216;42.656;23.232;2023-05-19T09:45:46;94161.03;;;19.57;55.11
61345;BME280;47216;42.656;23.232;2023-05-19T09:48:13;94170.31;;;19.68;54.75
61345;BME280;47216;42.656;23.232;2023-05-19T09:50:42;94163.44;;;19.67;54.47
61345;BME280;47216;42.656;23.232;2023-05-19T09:53:12;94162.97;;;19.65;54.60
61345;BME280;47216;42.656;23.232;2023-05-19T09:55:39;94162.19;;;19.65;54.88
61345;BME280;47216;42.656;23.232;2023-05-19T09:58:07;94159.66;;;19.73;55.50
61345;BME280;47216;42.656;23.232;2023-05-19T10:00:34;94167.59;;;19.73;54.04
61345;BME280;47216;42.656;23.232;2023-05-19T10:03:03;94157.75;;;19.88;53.62
61345;BME280;47216;42.656;23.232;2023-05-19T10:05:31;94164.97;;;19.96;56.19
61345;BME280;47216;42.656;23.232;2023-05-19T10:07:58;94157.66;;;19.93;54.88
61345;BME280;47216;42.656;23.232;2023-05-19T10:10:27;94147.66;;;19.90;53.97
61345;BME280;47216;42.656;23.232;2023-05-19T10:12:55;94156.47;;;19.99;53.98
61345;BME280;47216;42.656;23.232;2023-05-19T10:15:25;94149.75;;;20.15;53.13
61345;BME280;47216;42.656;23.232;2023-05-19T10:17:52;94154.31;;;20.24;52.34
61345;BME280;47216;42.656;23.232;2023-05-19T10:20:22;94152.63;;;20.28;51.42
61345;BME280;47216;42.656;23.232;2023-05-19T10:22:48;94151.59;;;20.38;52.03
61345;BME280;47216;42.656;23.232;2023-05-19T10:25:15;94151.44;;;20.34;52.19
61345;BME280;47216;42.656;23.232;2023-05-19T10:27:48;94142.09;;;20.36;52.94
61345;BME280;47216;42.656;23.232;2023-05-19T10:30:21;94148.97;;;20.60;51.38
61345;BME280;47216;42.656;23.232;2023-05-19T10:32:51;94137.53;;;20.73;51.71
61345;BME280;47216;42.656;23.232;2023-05-19T10:35:46;94139.63;;;20.85;51.93
61345;BME280;47216;42.656;23.232;2023-05-19T10:38:26;94132.50;;;20.94;50.29
61345;BME280;47216;42.656;23.232;2023-05-19T10:41:01;94141.34;;;20.90;51.07
61345;BME280;47216;42.656;23.232;2023-05-19T10:43:43;94138.13;;;21.02;46.95
61345;BME280;47216;42.656;23.232;2023-05-19T10:46:12;94134.38;;;21.03;48.67
61345;BME280;47216;42.656;23.232;2023-05-19T10:48:43;94128.81;;;21.13;48.99
61345;BME280;47216;42.656;23.232;2023-05-19T10:51:13;94118.75;;;20.92;48.16
61345;BME280;47216;42.656;23.232;2023-05-19T10:53:41;94122.41;;;21.14;48.08
61345;BME280;47216;42.656;23.232;2023-05-19T10:56:11;94117.91;;;21.23;50.79
61345;BME280;47216;42.656;23.232;2023-05-19T10:58:54;94109.56;;;21.38;48.15
61345;BME280;47216;42.656;23.232;2023-05-19T11:01:21;94116.78;;;21.47;48.16
61345;BME280;47216;42.656;23.232;2023-05-19T11:03:50;94113.84;;;21.57;48.74
61345;BME280;47216;42.656;23.232;2023-05-19T11:06:24;94112.41;;;21.51;47.81
61345;BME280;47216;42.656;23.232;2023-05-19T11:08:53;94111.88;;;21.31;45.91
61345;BME280;47216;42.656;23.232;2023-05-19T11:11:20;94124.19;;;21.27;46.71
61345;BME280;47216;42.656;23.232;2023-05-19T11:13:49;94116.41;;;21.39;46.24
61345;BME280;47216;42.656;23.232;2023-05-19T11:16:18;94105.63;;;21.27;45.05
61345;BME280;47216;42.656;23.232;2023-05-19T11:18:49;94112.03;;;21.26;45.66
61345;BME280;47216;42.656;23.232;2023-05-19T11:21:18;94125.22;;;21.09;46.21
61345;BME280;47216;42.656;23.232;2023-05-19T11:23:50;94119.75;;;21.05;49.07
61345;BME280;47216;42.656;23.232;2023-05-19T11:26:40;94112.09;;;21.04;46.59
61345;BME280;47216;42.656;23.232;2023-05-19T11:29:09;94109.16;;;21.14;45.56
61345;BME280;47216;42.656;23.232;2023-05-19T11:31:36;94114.69;;;21.35;47.77
61345;BME280;47216;42.656;23.232;2023-05-19T11:34:05;94099.78;;;21.48;45.84
61345;BME280;47216;42.656;23.232;2023-05-19T11:36:32;94092.75;;;21.52;44.12
61345;BME280;47216;42.656;23.232;2023-05-19T11:39:01;94106.78;;;21.44;46.00
61345;BME280;47216;42.656;23.232;2023-05-19T11:41:28;94111.22;;;21.26;46.18
61345;BME280;47216;42.656;23.232;2023-05-19T11:43:55;94104.06;;;21.26;46.43
61345;BME280;47216;42.656;23.232;2023-05-19T11:46:22;94097.84;;;21.31;46.24
61345;BME280;47216;42.656;23.232;2023-05-19T11:48:50;94099.84;;;21.25;46.84
61345;BME280;47216;42.656;23.232;2023-05-19T11:51:20;94103.28;;;21.34;46.41
61345;BME280;47216;42.656;23.232;2023-05-19T11:53:48;94105.75;;;21.22;47.43
61345;BME280;47216;42.656;23.232;2023-05-19T11:56:17;94097.19;;;21.25;48.18
61345;BME280;47216;42.656;23.232;2023-05-19T11:58:43;94101.41;;;21.26;47.58
61345;BME280;47216;42.656;23.232;2023-05-19T12:01:10;94122.31;;;21.19;49.72
61345;BME280;47216;42.656;23.232;2023-05-19T12:03:38;94154.25;;;21.14;50.54
61345;BME280;47216;42.656;23.232;2023-05-19T12:06:05;94175.78;;;20.59;54.98
61345;BME280;47216;42.656;23.232;2023-05-19T12:08:34;94191.22;;;20.56;57.69
61345;BME280;47216;42.656;23.232;2023-05-19T12:11:01;94177.91;;;20.11;59.78
61345;BME280;47216;42.656;23.232;2023-05-19T12:13:29;94176.78;;;19.90;60.49
61345;BME280;47216;42.656;23.232;2023-05-19T12:15:58;94174.03;;;19.67;60.22
61345;BME280;47216;42.656;23.232;2023-05-19T12:18:28;94167.88;;;19.30;58.34
61345;BME280;47216;42.656;23.232;2023-05-19T12:20:56;94184.03;;;19.15;60.92
61345;BME280;47216;42.656;23.232;2023-05-19T12:23:23;94168.06;;;18.93;60.22
61345;BME280;47216;42.656;23.232;2023-05-19T12:25:50;94172.34;;;18.88;59.54
61345;BME280;47216;42.656;23.232;2023-05-19T12:28:18;94178.72;;;18.68;60.11
61345;BME280;47216;42.656;23.232;2023-05-19T12:30:48;94176.72;;;18.46;60.40
61345;BME280;47216;42.656;23.232;2023-05-19T12:33:16;94194.94;;;18.29;59.70
61345;BME280;47216;42.656;23.232;2023-05-19T12:35:44;94184.16;;;18.06;56.74
61345;BME280;47216;42.656;23.232;2023-05-19T12:38:13;94177.53;;;17.90;58.95
61345;BME280;47216;42.656;23.232;2023-05-19T12:40:41;94176.28;;;17.63;59.58
61345;BME280;47216;42.656;23.232;2023-05-19T12:43:17;94172.13;;;17.76;60.53
61345;BME280;47216;42.656;23.232;2023-05-19T12:45:45;94167.94;;;17.75;61.65
61345;BME280;47216;42.656;23.232;2023-05-19T12:48:14;94168.63;;;17.62;64.51
61345;BME280;47216;42.656;23.232;2023-05-19T12:50:41;94163.16;;;17.58;65.51
61345;BME280;47216;42.656;23.232;2023-05-19T12:53:10;94155.78;;;17.55;65.23
61345;BME280;47216;42.656;23.232;2023-05-19T12:55:38;94150.75;;;17.59;65.67
61345;BME280;47216;42.656;23.232;2023-05-19T12:58:06;94146.19;;;17.64;65.43